createdAt,value
2019-05-18T00:03:18.335Z,19.02
2019-05-18T00:08:23.015Z,19.10
2019-05-18T00:13:27.583Z,18.60
2019-05-18T00:18:32.315Z,18.02
2019-05-18T00:23:37.003Z,19.70
2019-05-18T00:28:42.770Z,18.12
2019-05-18T00:33:47.414Z,17.48
2019-05-18T00:38:52.968Z,17.60
2019-05-18T00:43:57.535Z,17.77
2019-05-18T00:49:02.235Z,18.67
2019-05-18T00:54:06.867Z,22.42
2019-05-18T00:59:15.879Z,22.15
2019-05-18T01:04:17.897Z,21.02
2019-05-18T01:09:22.489Z,20.45
2019-05-18T01:14:27.074Z,20.27
2019-05-18T01:19:31.642Z,21.12
2019-05-18T01:24:36.483Z,23.73
2019-05-18T01:29:40.979Z,19.52
2019-05-18T01:34:45.681Z,20.48
2019-05-18T01:39:50.260Z,19.82
2019-05-18T01:44:54.811Z,19.07
2019-05-18T01:49:59.291Z,18.55
2019-05-18T01:55:05.141Z,17.12
2019-05-18T02:00:10.843Z,16.23
2019-05-18T02:05:15.409Z,16.37
2019-05-18T02:10:20.044Z,16.50
2019-05-18T02:15:24.684Z,18.32
2019-05-18T02:20:29.334Z,17.27
2019-05-18T02:25:33.977Z,16.62
2019-05-18T02:30:38.692Z,15.60
2019-05-18T02:35:43.258Z,16.80
2019-05-18T02:40:48.239Z,18.90
2019-05-18T02:45:52.957Z,18.87
2019-05-18T02:50:57.757Z,21.10
2019-05-18T02:56:02.310Z,21.05
2019-05-18T03:01:07.002Z,23.05
2019-05-18T03:06:11.639Z,22.37
2019-05-18T03:11:16.219Z,27.25
2019-05-18T03:16:20.857Z,24.85
2019-05-18T03:21:25.482Z,26.93
2019-05-18T03:26:30.146Z,24.05
2019-05-18T03:31:34.875Z,24.27
2019-05-18T03:36:39.478Z,24.27
2019-05-18T03:41:43.987Z,27.70
2019-05-18T03:46:48.586Z,26.20
2019-05-18T03:51:53.159Z,30.12
2019-05-18T03:56:57.739Z,30.48
2019-05-18T04:02:02.367Z,31.00
2019-05-18T04:07:07.034Z,30.27
2019-05-18T04:12:12.511Z,30.60
2019-05-18T04:17:17.129Z,29.32
2019-05-18T04:22:21.823Z,30.95
2019-05-18T04:27:26.447Z,27.05
2019-05-18T04:32:31.029Z,28.02
2019-05-18T04:37:35.580Z,25.72
2019-05-18T04:42:40.176Z,28.67
2019-05-18T04:47:48.475Z,29.90
2019-05-18T04:52:50.985Z,30.10
2019-05-18T04:57:55.572Z,30.17
2019-05-18T05:03:00.201Z,27.93
2019-05-18T05:08:04.891Z,28.42
2019-05-18T05:13:09.453Z,27.98
2019-05-18T05:18:14.217Z,30.40
2019-05-18T05:23:18.867Z,29.23
2019-05-18T05:28:23.423Z,28.92
2019-05-18T05:33:27.946Z,27.82
2019-05-18T05:38:32.566Z,31.57
2019-05-18T05:43:37.114Z,30.12
2019-05-18T05:48:41.685Z,30.77
2019-05-18T05:53:46.343Z,29.07
2019-05-18T05:58:50.935Z,27.22
2019-05-18T06:03:55.528Z,27.35
2019-05-18T06:09:00.177Z,26.40
2019-05-18T06:14:05.024Z,25.10
2019-05-18T06:19:09.622Z,26.48
2019-05-18T06:24:14.336Z,25.62
2019-05-18T06:29:18.811Z,23.45
2019-05-18T06:34:23.446Z,24.52
2019-05-18T06:39:28.049Z,23.47
2019-05-18T06:44:32.555Z,24.87
2019-05-18T06:49:37.104Z,26.25
2019-05-18T06:54:41.832Z,27.45
2019-05-18T06:59:46.476Z,26.62
2019-05-18T07:04:51.138Z,26.75
2019-05-18T07:09:55.827Z,27.13
2019-05-18T07:15:00.726Z,26.37
2019-05-18T07:20:06.953Z,27.13
2019-05-18T07:25:12.359Z,26.95
2019-05-18T07:30:17.941Z,24.30
2019-05-18T07:35:22.711Z,19.80
2019-05-18T07:40:27.433Z,25.48
2019-05-18T07:45:32.021Z,26.42
2019-05-18T07:50:36.590Z,24.30
2019-05-18T07:55:41.180Z,25.92
2019-05-18T08:00:45.964Z,25.82
2019-05-18T08:05:50.535Z,28.87
2019-05-18T08:10:56.014Z,25.75
2019-05-18T08:16:00.650Z,27.85
2019-05-18T08:21:05.271Z,30.27
2019-05-18T08:26:09.772Z,29.52
2019-05-18T08:31:17.315Z,36.70
2019-05-18T08:36:23.580Z,32.55
2019-05-18T08:41:28.422Z,31.85
2019-05-18T08:46:34.107Z,31.02
2019-05-18T08:51:38.943Z,30.75
2019-05-18T08:56:43.753Z,30.30
2019-05-18T09:01:48.517Z,30.27
2019-05-18T09:06:53.379Z,31.82
2019-05-18T09:11:58.078Z,32.20
2019-05-18T09:17:02.599Z,30.10
2019-05-18T09:22:07.312Z,28.52
2019-05-18T09:27:11.955Z,29.87
2019-05-18T09:32:18.741Z,28.15
2019-05-18T09:37:23.275Z,27.73
2019-05-18T09:42:30.582Z,27.77
2019-05-18T09:47:35.297Z,24.23
2019-05-18T09:52:45.476Z,24.98
2019-05-18T09:57:47.347Z,25.05
2019-05-18T10:02:52.067Z,24.02
2019-05-18T10:07:56.614Z,21.27
2019-05-18T10:13:01.227Z,21.93
2019-05-18T10:18:05.804Z,19.87
2019-05-18T10:23:13.694Z,19.02
2019-05-18T10:28:16.750Z,19.05
2019-05-18T10:33:21.318Z,17.45
2019-05-18T10:38:25.939Z,16.65
2019-05-18T10:43:30.471Z,15.38
2019-05-18T10:48:35.132Z,15.83
2019-05-18T10:53:39.704Z,14.60
2019-05-18T10:58:44.296Z,15.45
2019-05-18T11:03:49.018Z,14.53
2019-05-18T11:08:53.634Z,13.68
2019-05-18T11:13:58.319Z,13.62
2019-05-18T11:19:03.044Z,12.70
2019-05-18T11:24:07.818Z,13.80
2019-05-18T11:29:12.403Z,16.45
2019-05-18T11:34:16.990Z,15.10
2019-05-18T11:39:21.702Z,13.28
2019-05-18T11:44:26.342Z,14.98
2019-05-18T11:49:31.142Z,14.20
2019-05-18T11:54:35.773Z,13.72
2019-05-18T11:59:40.270Z,11.78
2019-05-18T12:04:48.651Z,9.20
2019-05-18T12:09:52.086Z,8.18
2019-05-18T12:14:56.697Z,8.90
2019-05-18T12:20:01.399Z,9.78
2019-05-18T12:25:07.194Z,9.20
2019-05-18T12:30:13.898Z,7.72
2019-05-18T12:35:20.138Z,7.37
2019-05-18T12:40:25.080Z,6.17
2019-05-18T12:45:29.728Z,2.62
2019-05-18T12:50:34.271Z,3.15
2019-05-18T12:55:40.910Z,3.70
2019-05-18T13:00:45.482Z,2.72
2019-05-18T13:05:50.192Z,3.05
2019-05-18T13:10:54.770Z,2.90
2019-05-18T13:15:59.351Z,2.83
2019-05-18T13:21:04.053Z,2.30
2019-05-18T13:26:08.779Z,2.72
2019-05-18T13:31:13.391Z,2.90
2019-05-18T13:36:18.036Z,3.30
2019-05-18T13:41:22.660Z,3.45
2019-05-18T13:46:27.267Z,3.35
2019-05-18T13:51:31.889Z,3.08
2019-05-18T13:56:39.803Z,3.10
2019-05-18T14:01:42.886Z,3.00
2019-05-18T14:06:47.466Z,2.92
2019-05-18T14:11:52.047Z,3.10
2019-05-18T14:16:56.698Z,3.35
2019-05-18T14:22:01.254Z,3.25
2019-05-18T14:27:05.949Z,6.17
2019-05-18T14:32:11.140Z,2.75
2019-05-18T14:37:15.984Z,2.92
2019-05-18T14:42:20.691Z,2.90
2019-05-18T14:47:27.387Z,3.25
2019-05-18T14:52:31.427Z,2.90
2019-05-18T14:57:35.986Z,3.67
2019-05-18T15:02:40.607Z,4.20
2019-05-18T15:07:45.207Z,4.83
2019-05-18T15:12:49.945Z,4.85
2019-05-18T15:17:54.508Z,4.30
2019-05-18T15:22:59.108Z,4.00
2019-05-18T15:28:03.897Z,5.28
2019-05-18T15:33:08.559Z,4.10
2019-05-18T15:38:13.135Z,4.50
2019-05-18T15:43:17.686Z,4.62
2019-05-18T15:48:22.492Z,5.22
2019-05-18T15:53:27.256Z,4.92
2019-05-18T15:58:31.749Z,5.12
2019-05-18T16:03:36.395Z,5.65
2019-05-18T16:08:40.959Z,5.05
2019-05-18T16:13:45.577Z,5.00
2019-05-18T16:18:50.250Z,7.17
2019-05-18T16:23:54.967Z,5.22
2019-05-18T16:28:59.560Z,5.90
2019-05-18T16:34:04.130Z,7.20
2019-05-18T16:39:09.174Z,6.15
2019-05-18T16:44:13.848Z,11.68
2019-05-18T16:49:18.450Z,7.20
2019-05-18T16:54:23.116Z,8.45
2019-05-18T16:59:27.689Z,7.58
2019-05-18T17:04:32.313Z,6.80
2019-05-18T17:09:36.981Z,5.60
2019-05-18T17:14:41.691Z,7.10
2019-05-18T17:19:46.211Z,23.38
2019-05-18T17:24:50.865Z,6.90
2019-05-18T17:29:55.545Z,5.70
2019-05-18T17:35:00.122Z,6.10
2019-05-18T17:40:06.252Z,5.97
2019-05-18T17:45:11.747Z,3.95
2019-05-18T17:50:16.885Z,3.50
2019-05-18T17:55:21.690Z,8.65
2019-05-18T18:00:26.430Z,8.03
2019-05-18T18:05:31.081Z,7.75
2019-05-18T18:10:35.929Z,9.13
2019-05-18T18:15:40.566Z,10.20
2019-05-18T18:20:45.403Z,6.67
2019-05-18T18:25:50.256Z,8.23
2019-05-18T18:30:54.740Z,8.88
2019-05-18T18:35:59.395Z,10.20
2019-05-18T18:41:04.035Z,15.45
2019-05-18T18:46:08.615Z,5.40
2019-05-18T18:51:13.259Z,5.42
2019-05-18T18:56:17.944Z,8.93
2019-05-18T19:01:22.656Z,4.70
2019-05-18T19:06:27.374Z,5.28
2019-05-18T19:11:31.888Z,9.20
2019-05-18T19:16:36.530Z,11.40
2019-05-18T19:21:41.295Z,9.05
2019-05-18T19:26:45.958Z,5.33
2019-05-18T19:31:50.583Z,9.83
2019-05-18T19:36:55.276Z,8.08
2019-05-18T19:41:59.998Z,7.50
2019-05-18T19:47:04.657Z,6.92
2019-05-18T19:52:09.306Z,6.87
2019-05-18T19:57:13.978Z,9.08
2019-05-18T20:02:18.662Z,7.92
2019-05-18T20:07:23.247Z,8.43
2019-05-18T20:12:27.997Z,10.48
2019-05-18T20:17:32.635Z,9.03
2019-05-18T20:22:37.181Z,9.43
2019-05-18T20:27:41.670Z,9.73
2019-05-18T20:32:46.462Z,10.15
2019-05-18T20:37:51.094Z,11.57
2019-05-18T20:42:55.908Z,11.55
2019-05-18T20:48:00.469Z,11.20
2019-05-18T20:53:05.143Z,11.03
2019-05-18T20:58:09.783Z,10.40
2019-05-18T21:03:14.572Z,12.68
2019-05-18T21:08:19.169Z,11.45
2019-05-18T21:13:23.750Z,11.33
2019-05-18T21:18:28.359Z,13.68
2019-05-18T21:23:33.000Z,11.73
2019-05-18T21:28:37.655Z,11.15
2019-05-18T21:33:42.207Z,10.20
2019-05-18T21:38:46.812Z,10.88
2019-05-18T21:43:51.470Z,10.18
2019-05-18T21:48:57.430Z,11.00
2019-05-18T21:54:01.986Z,9.93
2019-05-18T21:59:11.948Z,13.65
2019-05-18T22:04:14.015Z,10.28
2019-05-18T22:09:18.669Z,10.65
2019-05-18T22:14:23.244Z,9.40
2019-05-18T22:19:27.891Z,8.40
2019-05-18T22:24:32.386Z,8.73
2019-05-18T22:29:36.943Z,9.93
2019-05-18T22:34:41.599Z,8.70
2019-05-18T22:39:46.135Z,8.83
2019-05-18T22:44:50.613Z,9.25
2019-05-18T22:49:55.260Z,10.23
2019-05-18T22:54:59.814Z,9.60
2019-05-18T23:00:06.258Z,9.05
2019-05-18T23:05:12.693Z,9.98
2019-05-18T23:10:17.436Z,10.20
2019-05-18T23:15:22.102Z,12.23
2019-05-18T23:20:26.653Z,11.12
2019-05-18T23:25:31.313Z,10.60
2019-05-18T23:30:35.998Z,9.90
2019-05-18T23:35:41.766Z,10.15
2019-05-18T23:40:46.371Z,10.25
2019-05-18T23:45:50.995Z,8.55
2019-05-18T23:50:55.537Z,10.50
2019-05-18T23:56:00.078Z,9.08
